createdAt,value
2023-06-23T00:01:21.484Z,92.60
2023-06-23T00:03:49.276Z,92.70
2023-06-23T00:06:16.815Z,92.70
2023-06-23T00:08:43.746Z,92.50
2023-06-23T00:11:11.575Z,92.80
2023-06-23T00:13:38.794Z,92.90
2023-06-23T00:16:07.283Z,93.00
2023-06-23T00:18:38.370Z,93.00
2023-06-23T00:21:06.658Z,93.10
2023-06-23T00:23:34.314Z,93.20
2023-06-23T00:26:04.771Z,93.20
2023-06-23T00:28:32.120Z,93.20
2023-06-23T00:30:59.134Z,93.20
2023-06-23T00:33:25.971Z,93.60
2023-06-23T00:35:52.778Z,93.30
2023-06-23T00:38:21.141Z,93.40
2023-06-23T00:40:48.135Z,93.30
2023-06-23T00:43:17.606Z,93.30
2023-06-23T00:45:45.041Z,93.30
2023-06-23T00:48:15.568Z,93.40
2023-06-23T00:50:43.727Z,93.70
2023-06-23T00:53:11.070Z,93.50
2023-06-23T00:55:38.785Z,93.70
2023-06-23T00:58:07.880Z,93.60
2023-06-23T01:00:34.735Z,93.70
2023-06-23T01:03:02.835Z,93.80
2023-06-23T01:05:33.349Z,93.90
2023-06-23T01:08:15.233Z,93.90
2023-06-23T01:10:53.894Z,94.00
2023-06-23T01:13:41.619Z,94.10
2023-06-23T01:16:32.912Z,94.20
2023-06-23T01:19:20.934Z,94.40
2023-06-23T01:22:20.035Z,94.50
2023-06-23T01:25:15.400Z,94.60
2023-06-23T01:28:08.285Z,94.70
2023-06-23T01:30:38.133Z,94.70
2023-06-23T01:33:14.482Z,95.20
2023-06-23T01:35:46.186Z,94.90
2023-06-23T01:38:24.124Z,95.00
2023-06-23T01:40:55.385Z,95.00
2023-06-23T01:43:30.617Z,95.00
2023-06-23T01:46:05.959Z,94.90
2023-06-23T01:48:35.829Z,95.00
2023-06-23T01:51:06.400Z,95.00
2023-06-23T01:53:33.347Z,95.00
2023-06-23T01:56:04.077Z,95.10
2023-06-23T01:58:33.660Z,95.30
2023-06-23T02:01:01.749Z,95.30
2023-06-23T02:03:30.025Z,95.30
2023-06-23T02:05:59.101Z,95.30
2023-06-23T02:08:28.247Z,95.30
2023-06-23T02:10:56.635Z,95.30
2023-06-23T02:13:26.081Z,95.30
2023-06-23T02:15:54.894Z,95.30
2023-06-23T02:18:22.381Z,95.30
2023-06-23T02:20:51.537Z,95.30
2023-06-23T02:23:19.183Z,95.30
2023-06-23T02:25:46.908Z,95.30
2023-06-23T02:28:14.397Z,95.60
2023-06-23T02:30:42.458Z,95.30
2023-06-23T02:33:09.440Z,95.30
2023-06-23T02:35:36.464Z,95.30
2023-06-23T02:38:09.015Z,95.40
2023-06-23T02:40:40.213Z,95.40
2023-06-23T02:43:16.802Z,95.50
2023-06-23T02:45:51.810Z,95.50
2023-06-23T02:48:22.660Z,95.50
2023-06-23T02:50:51.563Z,95.40
2023-06-23T02:53:23.688Z,95.50
2023-06-23T02:55:57.414Z,95.50
2023-06-23T02:58:27.685Z,95.60
2023-06-23T03:00:55.568Z,95.50
2023-06-23T03:03:22.864Z,95.40
2023-06-23T03:05:50.922Z,95.40
2023-06-23T03:08:17.767Z,95.40
2023-06-23T03:10:44.621Z,95.50
2023-06-23T03:13:11.443Z,95.40
2023-06-23T03:15:38.252Z,95.40
2023-06-23T03:18:16.433Z,95.40
2023-06-23T03:20:49.714Z,95.30
2023-06-23T03:23:18.616Z,95.20
2023-06-23T03:25:49.249Z,95.20
2023-06-23T03:28:26.413Z,95.30
2023-06-23T03:31:08.130Z,95.30
2023-06-23T03:33:37.532Z,95.20
2023-06-23T03:36:21.190Z,95.40
2023-06-23T03:39:09.691Z,95.30
2023-06-23T03:41:39.751Z,95.20
2023-06-23T03:44:23.775Z,95.10
2023-06-23T03:47:01.613Z,95.00
2023-06-23T03:49:41.378Z,95.00
2023-06-23T03:52:10.781Z,94.80
2023-06-23T03:54:40.230Z,95.00
2023-06-23T03:57:12.272Z,94.60
2023-06-23T03:59:40.782Z,94.40
2023-06-23T04:02:09.791Z,94.50
2023-06-23T04:04:42.714Z,94.30
2023-06-23T04:07:11.734Z,94.40
2023-06-23T04:09:42.036Z,94.30
2023-06-23T04:12:14.037Z,94.30
2023-06-23T04:14:42.637Z,94.30
2023-06-23T04:17:12.621Z,94.30
2023-06-23T04:19:42.683Z,94.40
2023-06-23T04:22:10.679Z,94.50
2023-06-23T04:24:39.585Z,94.70
2023-06-23T04:27:07.977Z,94.90
2023-06-23T04:29:38.034Z,95.00
2023-06-23T04:32:05.253Z,95.00
2023-06-23T04:34:32.821Z,94.80
2023-06-23T04:37:10.102Z,94.60
2023-06-23T04:39:50.348Z,94.20
2023-06-23T04:42:22.750Z,94.60
2023-06-23T04:44:54.876Z,94.20
2023-06-23T04:47:24.247Z,94.20
2023-06-23T04:49:55.863Z,94.40
2023-06-23T04:52:24.080Z,94.10
2023-06-23T04:54:55.234Z,93.70
2023-06-23T04:57:26.283Z,93.50
2023-06-23T04:59:56.674Z,93.50
2023-06-23T05:02:26.548Z,93.10
2023-06-23T05:04:56.812Z,92.60
2023-06-23T05:07:25.284Z,92.50
2023-06-23T05:09:53.866Z,92.50
2023-06-23T05:12:23.196Z,92.20
2023-06-23T05:14:51.602Z,92.20
2023-06-23T05:17:21.684Z,92.30
2023-06-23T05:19:49.211Z,92.40
2023-06-23T05:22:18.687Z,92.40
2023-06-23T05:24:55.256Z,92.20
2023-06-23T05:27:25.165Z,92.20
2023-06-23T05:29:54.373Z,92.30
2023-06-23T05:32:23.894Z,92.60
2023-06-23T05:34:52.910Z,92.30
2023-06-23T05:37:21.623Z,92.50
2023-06-23T05:39:50.627Z,92.80
2023-06-23T05:42:17.701Z,92.70
2023-06-23T05:44:44.568Z,92.80
2023-06-23T05:47:16.576Z,92.80
2023-06-23T05:49:48.113Z,92.80
2023-06-23T05:52:20.084Z,92.50
2023-06-23T05:54:49.284Z,92.60
2023-06-23T05:57:29.674Z,92.70
2023-06-23T06:00:07.226Z,92.40
2023-06-23T06:02:37.570Z,92.40
2023-06-23T06:05:08.585Z,92.10
2023-06-23T06:07:36.563Z,92.00
2023-06-23T06:10:06.022Z,91.80
2023-06-23T06:12:35.644Z,91.80
2023-06-23T06:15:04.176Z,91.90
2023-06-23T06:17:33.300Z,92.30
2023-06-23T06:20:03.856Z,92.20
2023-06-23T06:22:33.681Z,92.40
2023-06-23T06:25:03.498Z,92.50
2023-06-23T06:27:34.128Z,92.70
2023-06-23T06:30:04.239Z,92.60
2023-06-23T06:32:35.268Z,92.30
2023-06-23T06:35:06.578Z,92.60
2023-06-23T06:37:42.121Z,92.60
2023-06-23T06:40:12.847Z,92.70
2023-06-23T06:42:42.236Z,92.80
2023-06-23T06:45:10.056Z,93.00
2023-06-23T06:47:44.815Z,93.30
2023-06-23T06:50:16.964Z,93.40
2023-06-23T06:52:46.228Z,93.80
2023-06-23T06:55:19.514Z,94.00
2023-06-23T06:57:50.782Z,93.90
2023-06-23T07:00:22.633Z,94.00
2023-06-23T07:02:49.943Z,94.40
2023-06-23T07:05:18.269Z,94.40
2023-06-23T07:07:46.066Z,94.60
2023-06-23T07:10:14.501Z,94.60
2023-06-23T07:12:41.409Z,94.70
2023-06-23T07:15:11.188Z,94.90
2023-06-23T07:17:40.361Z,94.90
2023-06-23T07:20:08.485Z,94.90
2023-06-23T07:22:35.487Z,95.00
2023-06-23T07:25:02.593Z,95.20
2023-06-23T07:27:29.698Z,95.30
2023-06-23T07:29:56.610Z,95.20
2023-06-23T07:32:24.266Z,95.20
2023-06-23T07:34:51.463Z,95.50
2023-06-23T07:37:18.390Z,95.40
2023-06-23T07:39:45.314Z,95.80
2023-06-23T07:42:12.142Z,95.60
2023-06-23T07:44:39.106Z,95.80
2023-06-23T07:47:06.558Z,96.00
2023-06-23T07:49:33.522Z,96.00
2023-06-23T07:52:05.809Z,96.10
2023-06-23T07:54:33.112Z,96.10
2023-06-23T07:57:01.477Z,96.50
2023-06-23T07:59:28.534Z,96.60
2023-06-23T08:01:55.602Z,96.70
2023-06-23T08:04:24.144Z,96.80
2023-06-23T08:06:51.753Z,97.10
2023-06-23T08:09:19.004Z,97.10
2023-06-23T08:11:46.190Z,96.90
2023-06-23T08:14:13.495Z,97.00
2023-06-23T08:16:40.785Z,97.30
2023-06-23T08:19:07.943Z,97.50
2023-06-23T08:21:37.717Z,97.60
2023-06-23T08:24:05.024Z,97.90
2023-06-23T08:26:32.015Z,98.00
2023-06-23T08:28:58.848Z,98.50
2023-06-23T08:31:25.718Z,99.40
2023-06-23T08:33:52.589Z,99.50
2023-06-23T08:36:19.538Z,99.90
2023-06-23T08:38:46.367Z,99.90
2023-06-23T08:41:13.391Z,99.90
2023-06-23T08:43:46.095Z,99.90
2023-06-23T08:46:16.073Z,99.90
2023-06-23T08:48:52.349Z,99.90
2023-06-23T08:51:19.447Z,99.90
2023-06-23T08:53:47.456Z,99.90
2023-06-23T08:56:15.333Z,99.90
2023-06-23T08:58:42.648Z,99.90
2023-06-23T09:01:09.601Z,99.90
2023-06-23T09:03:36.643Z,99.90
2023-06-23T09:06:04.472Z,99.90
2023-06-23T09:08:31.913Z,99.90
2023-06-23T09:10:58.807Z,99.90
2023-06-23T09:13:34.586Z,99.90
2023-06-23T09:16:03.969Z,99.90
2023-06-23T09:18:37.169Z,99.90
2023-06-23T09:21:04.710Z,99.90
2023-06-23T09:23:34.916Z,99.90
2023-06-23T09:26:04.932Z,99.90
2023-06-23T09:28:36.938Z,99.90
2023-06-23T09:31:22.976Z,99.90
2023-06-23T09:33:54.829Z,99.90
2023-06-23T09:36:21.757Z,99.90
2023-06-23T09:38:50.664Z,99.90
2023-06-23T09:41:18.993Z,99.90
2023-06-23T09:43:47.083Z,99.90
2023-06-23T09:46:18.830Z,99.90
2023-06-23T09:48:47.751Z,99.90
2023-06-23T09:51:14.784Z,99.90
2023-06-23T09:53:43.160Z,99.90
2023-06-23T09:56:16.767Z,99.90
2023-06-23T09:58:45.203Z,99.90
2023-06-23T10:01:14.504Z,99.90
2023-06-23T10:03:52.676Z,99.90
2023-06-23T10:06:35.834Z,99.90
2023-06-23T10:09:06.550Z,99.90
2023-06-23T10:11:35.700Z,99.90
2023-06-23T10:14:08.560Z,99.90
2023-06-23T10:16:36.937Z,99.90
2023-06-23T10:19:05.527Z,99.90
2023-06-23T10:21:32.922Z,99.90
2023-06-23T10:24:08.894Z,99.90
2023-06-23T10:26:37.745Z,99.90
2023-06-23T10:29:08.069Z,99.90
2023-06-23T10:31:37.004Z,99.90
2023-06-23T10:34:06.515Z,99.90
2023-06-23T10:36:37.257Z,99.90
2023-06-23T10:39:05.801Z,99.90
2023-06-23T10:41:35.499Z,99.90
2023-06-23T10:44:05.390Z,99.90
2023-06-23T10:46:34.533Z,99.90
2023-06-23T10:49:04.799Z,99.90
2023-06-23T10:51:32.601Z,99.90
2023-06-23T10:54:01.904Z,99.90
2023-06-23T10:56:35.504Z,99.90
2023-06-23T10:59:18.205Z,99.90
2023-06-23T11:02:14.595Z,99.90
2023-06-23T11:04:56.628Z,99.90
2023-06-23T11:07:24.635Z,99.90
2023-06-23T11:10:04.423Z,99.90
2023-06-23T11:12:39.976Z,99.90
2023-06-23T11:15:10.048Z,99.90
2023-06-23T11:17:44.846Z,99.90
2023-06-23T11:20:32.275Z,99.90
2023-06-23T11:23:06.118Z,99.90
2023-06-23T11:25:48.177Z,99.90
2023-06-23T11:28:38.651Z,99.90
2023-06-23T11:31:09.337Z,99.90
2023-06-23T11:33:40.328Z,99.90
2023-06-23T11:36:10.001Z,99.90
2023-06-23T11:38:38.949Z,99.90
2023-06-23T11:41:05.985Z,99.90
2023-06-23T11:43:39.486Z,99.90
2023-06-23T11:46:16.543Z,99.90
2023-06-23T11:48:44.072Z,99.90
2023-06-23T11:51:14.416Z,99.90
2023-06-23T11:53:41.842Z,99.90
2023-06-23T11:56:09.869Z,99.90
2023-06-23T11:58:37.153Z,99.90
2023-06-23T12:01:05.689Z,99.90
2023-06-23T12:03:37.453Z,99.90
2023-06-23T12:06:04.370Z,99.90
2023-06-23T12:08:31.325Z,99.90
2023-06-23T12:10:58.173Z,99.90
2023-06-23T12:13:25.002Z,99.90
2023-06-23T12:15:56.269Z,99.90
2023-06-23T12:18:25.277Z,99.90
2023-06-23T12:20:52.187Z,99.90
2023-06-23T12:23:19.003Z,99.90
2023-06-23T12:25:48.964Z,99.90
2023-06-23T12:28:17.375Z,99.90
2023-06-23T12:30:45.997Z,99.90
2023-06-23T12:33:23.693Z,99.90
2023-06-23T12:36:04.289Z,99.90
2023-06-23T12:38:34.100Z,99.90
2023-06-23T12:41:16.739Z,99.90
2023-06-23T12:43:43.800Z,99.90
2023-06-23T12:46:15.135Z,99.90
2023-06-23T12:48:42.940Z,99.90
2023-06-23T12:51:10.182Z,99.90
2023-06-23T12:53:37.387Z,99.90
2023-06-23T12:56:04.741Z,99.90
2023-06-23T12:58:31.554Z,99.90
2023-06-23T13:00:58.413Z,99.90
2023-06-23T13:03:25.345Z,99.90
2023-06-23T13:05:52.427Z,99.90
2023-06-23T13:08:19.298Z,99.90
2023-06-23T13:10:46.482Z,99.90
2023-06-23T13:13:13.423Z,99.90
2023-06-23T13:15:40.432Z,99.90
2023-06-23T13:18:07.518Z,99.90
2023-06-23T13:20:34.817Z,99.90
2023-06-23T13:23:02.603Z,99.90
2023-06-23T13:25:29.403Z,99.90
2023-06-23T13:27:56.703Z,99.90
2023-06-23T13:30:23.637Z,99.90
2023-06-23T13:32:50.545Z,99.90
2023-06-23T13:35:17.641Z,99.90
2023-06-23T13:37:44.508Z,99.90
2023-06-23T13:40:13.652Z,99.90
2023-06-23T13:42:41.066Z,99.90
2023-06-23T13:45:09.512Z,99.90
2023-06-23T13:47:38.497Z,99.90
2023-06-23T13:50:13.901Z,99.90
2023-06-23T13:52:41.180Z,99.90
2023-06-23T13:55:10.361Z,99.90
2023-06-23T13:57:42.941Z,99.90
2023-06-23T14:00:11.410Z,99.90
2023-06-23T14:02:38.870Z,99.90
2023-06-23T14:05:06.556Z,99.90
2023-06-23T14:07:33.670Z,99.90
2023-06-23T14:10:03.230Z,99.90
2023-06-23T14:12:31.865Z,99.90
2023-06-23T14:14:58.733Z,99.70
2023-06-23T14:17:27.331Z,99.70
2023-06-23T14:19:54.535Z,99.90
2023-06-23T14:22:21.580Z,99.90
2023-06-23T14:24:48.410Z,99.80
2023-06-23T14:27:15.354Z,99.80
2023-06-23T14:29:42.138Z,99.90
2023-06-23T14:32:09.027Z,99.90
2023-06-23T14:34:35.892Z,99.90
2023-06-23T14:37:04.817Z,99.90
2023-06-23T14:39:32.336Z,99.90
2023-06-23T14:41:59.285Z,99.90
2023-06-23T14:44:27.641Z,99.90
2023-06-23T14:46:57.605Z,99.80
2023-06-23T14:49:24.883Z,99.90
2023-06-23T14:51:52.195Z,99.90
2023-06-23T14:54:19.178Z,99.90
2023-06-23T14:56:47.065Z,99.90
2023-06-23T14:59:14.299Z,99.90
2023-06-23T15:01:41.332Z,99.90
2023-06-23T15:04:08.270Z,99.90
2023-06-23T15:06:35.214Z,99.90
2023-06-23T15:09:02.162Z,99.90
2023-06-23T15:11:29.166Z,99.90
2023-06-23T15:13:56.026Z,99.90
2023-06-23T15:16:23.178Z,99.90
2023-06-23T15:18:50.035Z,99.90
2023-06-23T15:21:18.295Z,99.90
2023-06-23T15:23:45.467Z,99.90
2023-06-23T15:26:12.268Z,99.90
2023-06-23T15:28:39.058Z,99.90
2023-06-23T15:31:05.843Z,99.90
2023-06-23T15:33:32.632Z,99.90
2023-06-23T15:35:59.768Z,99.90
2023-06-23T15:38:29.293Z,99.90
2023-06-23T15:40:56.409Z,99.90
2023-06-23T15:43:23.484Z,99.40
2023-06-23T15:45:50.571Z,99.50
2023-06-23T15:48:17.717Z,99.50
2023-06-23T15:50:44.585Z,99.40
2023-06-23T15:53:11.548Z,99.40
2023-06-23T15:55:38.912Z,99.30
2023-06-23T15:58:06.107Z,99.20
2023-06-23T16:00:33.052Z,99.40
2023-06-23T16:03:00.042Z,99.40
2023-06-23T16:05:27.045Z,99.50
2023-06-23T16:07:53.989Z,99.50
2023-06-23T16:10:20.992Z,99.50
2023-06-23T16:12:48.399Z,99.50
2023-06-23T16:15:15.292Z,99.50
2023-06-23T16:17:43.086Z,99.60
2023-06-23T16:20:10.501Z,99.80
2023-06-23T16:22:37.376Z,99.50
2023-06-23T16:25:05.080Z,99.30
2023-06-23T16:27:32.281Z,99.20
2023-06-23T16:29:59.294Z,99.20
2023-06-23T16:32:27.049Z,99.20
2023-06-23T16:34:56.166Z,99.10
2023-06-23T16:37:23.093Z,99.20
2023-06-23T16:39:49.821Z,99.40
2023-06-23T16:42:16.630Z,99.20
2023-06-23T16:44:44.294Z,99.10
2023-06-23T16:47:11.976Z,98.90
2023-06-23T16:49:38.971Z,99.10
2023-06-23T16:52:06.726Z,99.20
2023-06-23T16:54:35.942Z,99.20
2023-06-23T16:57:03.141Z,99.30
2023-06-23T16:59:30.138Z,99.30
2023-06-23T17:01:59.876Z,99.40
2023-06-23T17:04:26.684Z,99.50
2023-06-23T17:06:53.518Z,99.70
2023-06-23T17:09:20.352Z,99.70
2023-06-23T17:11:47.746Z,99.80
2023-06-23T17:14:16.188Z,99.90
2023-06-23T17:16:43.008Z,99.90
2023-06-23T17:19:09.790Z,99.90
2023-06-23T17:21:38.426Z,99.90
2023-06-23T17:24:05.466Z,99.90
2023-06-23T17:26:33.724Z,99.90
2023-06-23T17:29:00.527Z,99.90
2023-06-23T17:31:27.491Z,99.90
2023-06-23T17:33:54.420Z,99.90
2023-06-23T17:36:21.343Z,99.90
2023-06-23T17:38:48.176Z,99.90
2023-06-23T17:41:15.018Z,99.80
2023-06-23T17:43:41.799Z,99.90
2023-06-23T17:46:09.257Z,99.90
2023-06-23T17:48:36.275Z,99.90
2023-06-23T17:51:03.727Z,99.90
2023-06-23T17:53:30.965Z,99.90
2023-06-23T17:55:58.384Z,99.90
2023-06-23T17:58:26.397Z,99.90
2023-06-23T18:00:53.158Z,99.70
2023-06-23T18:03:20.200Z,99.70
2023-06-23T18:05:47.051Z,99.50
2023-06-23T18:08:13.837Z,99.50
2023-06-23T18:10:40.663Z,99.60
2023-06-23T18:13:07.596Z,99.60
2023-06-23T18:15:34.719Z,99.70
2023-06-23T18:18:01.831Z,99.70
2023-06-23T18:20:28.816Z,99.80
2023-06-23T18:22:55.740Z,99.70
2023-06-23T18:25:22.616Z,99.70
2023-06-23T18:27:49.576Z,99.70
2023-06-23T18:30:17.221Z,99.80
2023-06-23T18:32:44.952Z,99.80
2023-06-23T18:35:13.677Z,99.80
2023-06-23T18:37:41.913Z,99.90
2023-06-23T18:40:09.436Z,99.90
2023-06-23T18:42:36.314Z,99.90
2023-06-23T18:45:03.391Z,99.90
2023-06-23T18:47:33.176Z,99.00
2023-06-23T18:49:59.979Z,97.60
2023-06-23T18:52:27.000Z,96.90
2023-06-23T18:54:54.813Z,96.90
2023-06-23T18:57:23.334Z,96.10
2023-06-23T18:59:50.740Z,95.40
2023-06-23T19:02:17.558Z,94.80
2023-06-23T19:04:44.413Z,94.80
2023-06-23T19:07:11.640Z,94.60
2023-06-23T19:09:38.656Z,94.00
2023-06-23T19:12:09.818Z,94.00
2023-06-23T19:14:38.491Z,93.60
2023-06-23T19:17:07.674Z,93.50
2023-06-23T19:19:37.235Z,93.50
2023-06-23T19:22:04.674Z,93.10
2023-06-23T19:24:31.852Z,92.90
2023-06-23T19:26:59.113Z,92.90
2023-06-23T19:29:25.938Z,92.70
2023-06-23T19:31:52.702Z,92.30
2023-06-23T19:34:19.520Z,92.10
2023-06-23T19:36:46.522Z,92.20
2023-06-23T19:39:13.398Z,92.30
2023-06-23T19:41:42.621Z,92.20
2023-06-23T19:44:09.781Z,92.20
2023-06-23T19:46:36.676Z,91.90
2023-06-23T19:49:03.804Z,91.90
2023-06-23T19:51:30.638Z,91.70
2023-06-23T19:53:58.996Z,91.60
2023-06-23T19:56:25.906Z,91.50
2023-06-23T19:58:52.838Z,91.50
2023-06-23T20:01:19.639Z,91.30
2023-06-23T20:03:47.171Z,91.10
2023-06-23T20:06:14.120Z,90.90
2023-06-23T20:08:40.978Z,90.70
2023-06-23T20:11:07.749Z,90.50
2023-06-23T20:13:34.660Z,90.10
2023-06-23T20:16:01.625Z,90.10
2023-06-23T20:18:28.755Z,90.00
2023-06-23T20:20:55.578Z,89.60
2023-06-23T20:23:23.195Z,89.80
2023-06-23T20:25:50.019Z,89.70
2023-06-23T20:28:17.920Z,89.70
2023-06-23T20:30:44.851Z,89.80
2023-06-23T20:33:11.708Z,90.10
2023-06-23T20:35:38.497Z,90.40
2023-06-23T20:38:05.369Z,90.60
2023-06-23T20:40:32.344Z,91.00
2023-06-23T20:43:00.604Z,91.20
2023-06-23T20:45:27.508Z,91.60
2023-06-23T20:47:54.646Z,91.40
2023-06-23T20:50:21.571Z,91.50
2023-06-23T20:52:48.336Z,91.60
2023-06-23T20:55:15.403Z,91.70
2023-06-23T20:57:42.256Z,91.80
2023-06-23T21:00:09.587Z,91.80
2023-06-23T21:02:36.541Z,91.80
2023-06-23T21:05:03.550Z,91.80
2023-06-23T21:07:30.441Z,92.40
2023-06-23T21:09:57.262Z,92.00
2023-06-23T21:12:24.095Z,92.20
2023-06-23T21:15:04.001Z,92.20
2023-06-23T21:17:33.370Z,92.10
2023-06-23T21:20:00.359Z,92.20
2023-06-23T21:22:27.120Z,92.30
2023-06-23T21:24:53.955Z,92.20
2023-06-23T21:27:20.770Z,92.20
2023-06-23T21:29:47.556Z,92.20
2023-06-23T21:32:14.543Z,92.30
2023-06-23T21:34:41.350Z,92.40
2023-06-23T21:37:08.208Z,92.40
2023-06-23T21:39:35.045Z,92.30
2023-06-23T21:42:01.835Z,92.30
2023-06-23T21:44:28.688Z,92.30
2023-06-23T21:46:55.864Z,92.30
2023-06-23T21:49:22.708Z,92.20
2023-06-23T21:51:51.628Z,92.40
2023-06-23T21:54:18.508Z,92.40
2023-06-23T21:56:46.617Z,92.40
2023-06-23T21:59:13.366Z,92.20
2023-06-23T22:01:40.279Z,92.30
2023-06-23T22:04:07.212Z,92.40
2023-06-23T22:06:34.027Z,92.30
2023-06-23T22:09:00.859Z,92.40
2023-06-23T22:11:27.680Z,92.30
2023-06-23T22:13:54.450Z,92.30
2023-06-23T22:16:21.248Z,92.30
2023-06-23T22:18:50.129Z,92.30
2023-06-23T22:21:21.240Z,92.50
2023-06-23T22:23:48.119Z,92.50
2023-06-23T22:26:15.403Z,92.40
2023-06-23T22:28:42.660Z,92.40
2023-06-23T22:31:09.671Z,92.50
2023-06-23T22:33:36.683Z,92.50
2023-06-23T22:36:03.686Z,92.60
2023-06-23T22:38:30.433Z,92.50
2023-06-23T22:40:57.355Z,92.50
2023-06-23T22:43:24.124Z,92.70
2023-06-23T22:45:51.078Z,92.60
2023-06-23T22:48:18.053Z,92.60
2023-06-23T22:50:44.831Z,92.80
2023-06-23T22:53:11.822Z,92.70
2023-06-23T22:55:38.626Z,92.80
2023-06-23T22:58:05.519Z,93.00
2023-06-23T23:00:33.184Z,93.00
2023-06-23T23:03:01.402Z,93.00
2023-06-23T23:05:28.352Z,93.10
2023-06-23T23:07:55.129Z,93.10
2023-06-23T23:10:21.990Z,93.20
2023-06-23T23:12:48.805Z,93.30
2023-06-23T23:15:17.140Z,93.30
2023-06-23T23:17:44.296Z,93.20
2023-06-23T23:20:11.641Z,93.30
2023-06-23T23:22:38.627Z,93.50
2023-06-23T23:25:06.171Z,93.60
2023-06-23T23:27:39.579Z,93.50
2023-06-23T23:30:08.380Z,93.50
2023-06-23T23:32:39.107Z,93.60
2023-06-23T23:35:07.319Z,93.70
2023-06-23T23:37:34.840Z,93.80
2023-06-23T23:40:01.650Z,93.60
2023-06-23T23:42:29.091Z,93.60
2023-06-23T23:44:55.909Z,93.70
2023-06-23T23:47:22.725Z,94.00
2023-06-23T23:49:49.580Z,93.70
2023-06-23T23:52:16.418Z,93.80
2023-06-23T23:54:43.221Z,93.90
2023-06-23T23:57:10.215Z,93.90
2023-06-23T23:59:37.616Z,93.90
